ADDS TAF Data INFO
IDs: Format: Raw Decoded Include METARs

Data at: 1707 UTC 26 Apr 2018

KPIT 261651Z 25007KT 10SM SCT035 SCT250 12/02 A2994 RMK AO2 SLP148 T01170022

KPIT 261501Z 2615/2718 28004KT P6SM SCT025
  FM270600 VRB03KT P6SM BKN100